Time;durP1;ratioP1;P1;durP2;ratioP2;P2;SDS_P1;SDS_P2;PMS_P1;PMS_P2;Temp;Humidity;BMP_temperature;BMP_pressure;BME280_temperature;BME280_humidity;BME280_pressure;Samples;Min_cycle;Max_cycle;Signal;HPM_P1;HPM_P2
2023/10/01 00:00:11;;;;;;;1999.90;999.90;;;14.40;99.90;;;;;;4983962;28;20509;-71
2023/10/01 00:02:39;;;;;;;1999.90;999.90;;;14.30;99.90;;;;;;4975734;28;20060;-71
2023/10/01 00:05:05;;;;;;;1999.90;999.90;;;14.30;99.90;;;;;;4984577;28;20042;-71
2023/10/01 00:07:36;;;;;;;1999.90;999.90;;;14.30;99.90;;;;;;4980157;28;20143;-71
2023/10/01 00:10:10;;;;;;;1999.90;999.90;;;14.40;99.90;;;;;;4986905;28;20042;-71
2023/10/01 00:12:36;;;;;;;1999.90;999.90;;;14.40;99.90;;;;;;4977042;28;20454;-72
2023/10/01 00:15:02;;;;;;;1999.90;999.90;;;14.40;99.90;;;;;;4983945;28;20093;-71
2023/10/01 00:17:28;;;;;;;1999.90;999.90;;;14.40;99.90;;;;;;4977326;28;20444;-71
2023/10/01 00:19:53;;;;;;;1999.90;999.90;;;14.40;99.90;;;;;;4971694;28;20097;-71
2023/10/01 00:22:19;;;;;;;1999.90;999.90;;;14.30;99.90;;;;;;4977770;28;20042;-72
2023/10/01 00:24:45;;;;;;;1999.90;999.90;;;14.30;99.90;;;;;;5006165;28;20406;-72
2023/10/01 00:27:10;;;;;;;1999.90;999.90;;;14.40;99.90;;;;;;4988651;28;20440;-72
2023/10/01 00:29:37;;;;;;;1999.90;999.90;;;14.30;99.90;;;;;;4978750;28;20038;-71
2023/10/01 00:32:04;;;;;;;1999.90;999.90;;;14.40;99.90;;;;;;4988508;28;20042;-72
2023/10/01 00:34:29;;;;;;;1999.90;999.90;;;14.40;99.90;;;;;;4987992;28;20095;-71
2023/10/01 00:36:55;;;;;;;1999.90;999.90;;;14.30;99.90;;;;;;4986334;28;20470;-71
2023/10/01 00:39:20;;;;;;;1999.90;999.90;;;14.30;99.90;;;;;;5008764;28;20125;-71
2023/10/01 00:41:46;;;;;;;1999.90;999.90;;;14.30;99.90;;;;;;4969410;28;20092;-71
2023/10/01 00:44:13;;;;;;;1999.90;999.90;;;14.40;99.90;;;;;;4976442;28;20046;-71
2023/10/01 00:46:39;;;;;;;1999.90;999.90;;;14.40;99.90;;;;;;4987236;28;20513;-71
2023/10/01 00:49:07;;;;;;;1999.90;999.90;;;14.40;99.90;;;;;;4986663;28;20129;-71
2023/10/01 00:51:33;;;;;;;1999.90;999.90;;;14.40;99.90;;;;;;4979819;28;20087;-71
2023/10/01 00:54:02;;;;;;;1999.90;999.90;;;14.30;99.90;;;;;;4975846;28;20051;-71
2023/10/01 00:56:28;;;;;;;1999.90;999.90;;;14.40;99.90;;;;;;4984235;28;20399;-71
2023/10/01 00:58:53;;;;;;;1999.90;999.90;;;14.40;99.90;;;;;;4983056;28;20049;-71
2023/10/01 01:01:23;;;;;;;1999.90;999.90;;;14.40;99.90;;;;;;4988761;28;20034;-71
2023/10/01 01:03:52;;;;;;;1999.90;999.90;;;14.40;99.90;;;;;;4983361;28;20062;-71
2023/10/01 01:06:23;;;;;;;1999.90;999.90;;;14.30;99.90;;;;;;4983211;28;20050;-71
2023/10/01 01:08:54;;;;;;;1999.90;999.90;;;14.30;99.90;;;;;;4979552;28;20081;-71
2023/10/01 01:11:21;;;;;;;1999.90;999.90;;;14.30;99.90;;;;;;4982695;28;20042;-72
2023/10/01 01:13:50;;;;;;;1999.90;999.90;;;14.30;99.90;;;;;;4981834;28;20095;-71
2023/10/01 01:16:19;;;;;;;1999.90;999.90;;;14.30;99.90;;;;;;4986936;28;20050;-71
2023/10/01 01:18:47;;;;;;;1999.90;999.90;;;14.30;99.90;;;;;;4983967;28;20030;-71
2023/10/01 01:21:13;;;;;;;1999.90;999.90;;;14.30;99.90;;;;;;4977646;28;20109;-71
2023/10/01 01:23:45;;;;;;;1999.90;999.90;;;14.30;99.90;;;;;;4958728;28;20047;-72
2023/10/01 01:26:13;;;;;;;1999.90;999.90;;;14.30;99.90;;;;;;4987912;28;20117;-72
2023/10/01 01:28:41;;;;;;;1999.90;999.90;;;14.30;99.90;;;;;;4985779;28;20035;-71
2023/10/01 01:31:08;;;;;;;1999.90;999.90;;;14.30;99.90;;;;;;4983083;28;20042;-71
2023/10/01 01:33:40;;;;;;;1999.90;999.90;;;14.30;99.90;;;;;;4984185;28;20069;-71
2023/10/01 01:36:12;;;;;;;1999.90;999.90;;;14.30;99.90;;;;;;4969815;28;20045;-71
2023/10/01 01:38:54;;;;;;;1999.90;999.90;;;14.30;99.90;;;;;;4971012;28;20066;-72
2023/10/01 01:41:19;;;;;;;1999.90;999.90;;;14.30;99.90;;;;;;4978047;28;20090;-71
2023/10/01 01:43:51;;;;;;;1999.90;999.90;;;14.30;99.90;;;;;;4987459;28;20054;-71
2023/10/01 01:46:18;;;;;;;1999.90;999.90;;;14.30;99.90;;;;;;4986056;28;20502;-71
2023/10/01 01:48:51;;;;;;;1999.90;999.90;;;14.40;99.90;;;;;;4985568;28;20095;-71
2023/10/01 01:51:19;;;;;;;1999.90;999.90;;;14.30;99.90;;;;;;4984776;28;20042;-72
2023/10/01 01:53:50;;;;;;;1999.90;999.90;;;14.30;99.90;;;;;;4984281;28;20133;-72
2023/10/01 01:56:18;;;;;;;1999.90;999.90;;;14.30;99.90;;;;;;4982092;28;20118;-72
2023/10/01 01:58:44;;;;;;;1999.90;999.90;;;14.40;99.90;;;;;;4982538;28;20054;-72
2023/10/01 02:03:39;;;;;;;1999.90;999.90;;;14.30;99.90;;;;;;4986631;28;20046;-71
2023/10/01 02:06:07;;;;;;;1999.90;999.90;;;14.30;99.90;;;;;;4986803;28;20050;-71
2023/10/01 02:11:16;;;;;;;1999.90;999.90;;;14.30;99.90;;;;;;4971525;28;20144;-72
2023/10/01 02:13:45;;;;;;;1999.90;999.90;;;14.40;99.90;;;;;;4986020;28;20497;-72
2023/10/01 02:19:22;;;;;;;1999.90;999.90;;;14.40;99.90;;;;;;4982676;28;20114;-72
2023/10/01 02:21:52;;;;;;;1999.90;999.90;;;14.40;99.90;;;;;;4979623;28;20046;-71
2023/10/01 02:24:23;;;;;;;1999.90;999.90;;;14.40;99.90;;;;;;4972634;28;20121;-71
2023/10/01 02:27:00;;;;;;;1999.90;999.90;;;14.40;99.90;;;;;;4980718;28;20131;-71
2023/10/01 02:29:32;;;;;;;1999.90;999.90;;;14.40;99.90;;;;;;4979444;28;20042;-71
2023/10/01 02:32:04;;;;;;;1999.90;999.90;;;14.40;99.90;;;;;;4980796;28;20054;-71
2023/10/01 02:34:31;;;;;;;1999.90;999.90;;;14.40;99.90;;;;;;4982229;28;20132;-71
2023/10/01 02:36:58;;;;;;;1999.90;999.90;;;14.50;99.90;;;;;;4981077;28;20038;-71
2023/10/01 02:39:30;;;;;;;1999.90;999.90;;;14.40;99.90;;;;;;4982202;28;20494;-71
2023/10/01 02:44:39;;;;;;;1999.90;999.90;;;14.40;99.90;;;;;;4975165;28;20042;-72
2023/10/01 02:47:18;;;;;;;1999.90;999.90;;;14.40;99.90;;;;;;4985538;28;20427;-71
2023/10/01 02:49:53;;;;;;;1999.90;999.90;;;14.40;99.90;;;;;;5006171;28;20061;-71
2023/10/01 02:52:36;;;;;;;1999.90;999.90;;;14.40;99.90;;;;;;4984205;28;20046;-71
2023/10/01 02:55:18;;;;;;;1999.90;999.90;;;14.40;99.90;;;;;;4981498;28;20052;-71
2023/10/01 02:57:44;;;;;;;1999.90;999.90;;;14.40;99.90;;;;;;4976107;28;20125;-71
2023/10/01 03:02:38;;;;;;;1999.90;999.90;;;14.40;99.90;;;;;;4972809;28;20086;-71
2023/10/01 03:05:18;;;;;;;1999.90;999.90;;;14.40;99.90;;;;;;4983210;28;20135;-71
2023/10/01 03:07:50;;;;;;;1999.90;999.90;;;14.40;99.90;;;;;;4981071;28;20055;-72
2023/10/01 03:10:25;;;;;;;1999.90;999.90;;;14.40;99.90;;;;;;4978079;28;20046;-71
2023/10/01 03:13:01;;;;;;;1999.90;999.90;;;14.40;99.90;;;;;;4980375;28;20130;-71
2023/10/01 03:15:28;;;;;;;1999.90;999.90;;;14.40;99.90;;;;;;4971630;28;20035;-71
2023/10/01 03:17:58;;;;;;;1999.90;999.90;;;14.50;99.90;;;;;;4969489;28;20057;-71
2023/10/01 03:26:07;;;;;;;1999.90;999.90;;;14.50;99.90;;;;;;4977795;28;20043;-71
2023/10/01 03:31:25;;;;;;;1999.90;999.90;;;14.50;99.90;;;;;;4971848;28;20055;-71
2023/10/01 03:33:53;;;;;;;1999.90;999.90;;;14.60;99.90;;;;;;4983465;28;20438;-71
2023/10/01 03:36:25;;;;;;;1999.90;999.90;;;14.60;99.90;;;;;;4973722;28;20050;-72
2023/10/01 03:38:57;;;;;;;1999.90;999.90;;;14.50;99.90;;;;;;4981968;28;20096;-72
2023/10/01 03:41:24;;;;;;;1999.90;999.90;;;14.60;99.90;;;;;;4979775;28;20060;-71
2023/10/01 03:43:52;;;;;;;1999.90;999.90;;;14.50;99.90;;;;;;4989399;28;20157;-72
2023/10/01 03:48:59;;;;;;;1999.90;999.90;;;14.50;99.90;;;;;;4985173;28;20058;-71
2023/10/01 03:51:28;;;;;;;1999.90;999.90;;;14.50;99.90;;;;;;4986415;28;20504;-71
2023/10/01 03:54:03;;;;;;;1999.90;999.90;;;14.60;99.90;;;;;;4988240;28;20175;-71
2023/10/01 03:56:33;;;;;;;1999.90;999.90;;;14.60;99.90;;;;;;4984428;28;20394;-71
2023/10/01 03:58:59;;;;;;;1999.90;999.90;;;14.60;99.90;;;;;;4984647;28;20081;-72
2023/10/01 04:01:33;;;;;;;1999.90;999.90;;;14.60;99.90;;;;;;4981506;28;20064;-71
2023/10/01 04:04:00;;;;;;;1999.90;999.90;;;14.60;99.90;;;;;;5007796;28;20608;-71
2023/10/01 04:06:27;;;;;;;1999.90;999.90;;;14.60;99.90;;;;;;4985318;28;20046;-71
2023/10/01 04:08:55;;;;;;;1999.90;999.90;;;14.60;99.90;;;;;;4989473;28;20391;-71
2023/10/01 04:11:41;;;;;;;1999.90;999.90;;;14.60;99.90;;;;;;4982397;28;20414;-71
2023/10/01 04:14:10;;;;;;;1999.90;999.90;;;14.60;99.90;;;;;;4978792;28;20082;-72
2023/10/01 04:16:35;;;;;;;1999.90;999.90;;;14.60;99.90;;;;;;4982114;28;20061;-71
2023/10/01 04:19:01;;;;;;;1999.90;999.90;;;14.60;99.90;;;;;;4976847;28;20046;-72
2023/10/01 04:21:28;;;;;;;1999.90;999.90;;;14.60;99.90;;;;;;4974185;28;20939;-71
2023/10/01 04:23:54;;;;;;;1999.90;999.90;;;14.70;99.90;;;;;;4977889;28;20061;-71
2023/10/01 04:26:22;;;;;;;1999.90;999.90;;;14.70;99.90;;;;;;4972846;28;20360;-71
2023/10/01 04:28:54;;;;;;;1999.90;999.90;;;14.70;99.90;;;;;;4979625;28;20099;-71
2023/10/01 04:31:42;;;;;;;1999.90;999.90;;;14.70;99.90;;;;;;4973271;28;20440;-71
2023/10/01 04:34:10;;;;;;;1999.90;999.90;;;14.70;99.90;;;;;;5002571;28;20050;-72
2023/10/01 04:36:42;;;;;;;1999.90;999.90;;;14.70;99.90;;;;;;4982430;28;20050;-72
2023/10/01 04:39:09;;;;;;;1999.90;999.90;;;14.70;99.90;;;;;;4975960;28;20179;-72
2023/10/01 04:41:35;;;;;;;1999.90;999.90;;;14.70;99.90;;;;;;4975621;28;20086;-71
2023/10/01 04:44:07;;;;;;;1999.90;999.90;;;14.70;99.90;;;;;;4986222;28;20048;-71
2023/10/01 04:46:37;;;;;;;1999.90;999.90;;;14.70;99.90;;;;;;4974270;28;20047;-72
2023/10/01 04:51:53;;;;;;;1999.90;999.90;;;14.70;99.90;;;;;;4977591;28;20054;-72
2023/10/01 04:54:21;;;;;;;1999.90;999.90;;;14.70;99.90;;;;;;4978305;28;20053;-71
2023/10/01 04:56:48;;;;;;;1999.90;999.90;;;14.70;99.90;;;;;;4983092;28;20121;-71
2023/10/01 04:59:15;;;;;;;1999.90;999.90;;;14.70;99.90;;;;;;4987704;28;20042;-71
2023/10/01 05:01:41;;;;;;;1999.90;999.90;;;14.70;99.90;;;;;;4983556;28;20047;-71
2023/10/01 05:04:11;;;;;;;1999.90;999.90;;;14.70;99.90;;;;;;4987454;28;20047;-71
2023/10/01 05:06:40;;;;;;;1999.90;999.90;;;14.70;99.90;;;;;;4988409;28;20042;-71
2023/10/01 05:09:07;;;;;;;1999.90;999.90;;;14.70;99.90;;;;;;4983075;28;20129;-71
2023/10/01 05:11:34;;;;;;;1999.90;999.90;;;14.70;99.90;;;;;;4986598;28;20422;-72
2023/10/01 05:14:04;;;;;;;1999.90;999.90;;;14.70;99.90;;;;;;4964441;28;20059;-71
2023/10/01 05:16:31;;;;;;;1999.90;999.90;;;14.70;99.90;;;;;;4981059;28;20051;-71
2023/10/01 05:19:09;;;;;;;1999.90;999.90;;;14.70;99.90;;;;;;4967330;28;20046;-72
2023/10/01 05:21:47;;;;;;;1999.90;999.90;;;14.70;99.90;;;;;;4978103;28;20485;-72
2023/10/01 05:27:00;;;;;;;1999.90;999.90;;;14.60;99.90;;;;;;4986884;28;20042;-72
2023/10/01 05:29:26;;;;;;;1999.90;999.90;;;14.60;99.90;;;;;;4983684;28;20495;-71
2023/10/01 05:31:55;;;;;;;1999.90;999.90;;;14.60;99.90;;;;;;4974309;28;20057;-72
2023/10/01 05:34:25;;;;;;;1999.90;999.90;;;14.60;99.90;;;;;;4976952;28;20410;-72
2023/10/01 05:36:52;;;;;;;1999.90;999.90;;;14.60;99.90;;;;;;4988168;28;20046;-72
2023/10/01 05:39:23;;;;;;;1999.90;999.90;;;14.50;99.90;;;;;;4984384;28;20215;-72
2023/10/01 05:41:51;;;;;;;1999.90;999.90;;;14.50;99.90;;;;;;4975097;28;20061;-72
2023/10/01 05:44:18;;;;;;;1999.90;999.90;;;14.50;99.90;;;;;;4979934;28;20410;-72
2023/10/01 05:46:46;;;;;;;1999.90;999.90;;;14.50;99.90;;;;;;4981197;28;20400;-71
2023/10/01 05:49:12;;;;;;;1999.90;999.90;;;14.50;99.90;;;;;;4983689;28;20046;-72
2023/10/01 05:51:45;;;;;;;1999.90;999.90;;;14.50;99.90;;;;;;4978882;28;20102;-72
2023/10/01 05:54:18;;;;;;;1999.90;999.90;;;14.50;99.90;;;;;;4963452;28;20451;-72
2023/10/01 05:56:48;;;;;;;1999.90;999.90;;;14.50;99.90;;;;;;4980324;28;20045;-71
2023/10/01 05:59:15;;;;;;;1999.90;999.90;;;14.40;99.90;;;;;;4979905;28;20034;-72
2023/10/01 06:01:41;;;;;;;1999.90;999.90;;;14.50;99.90;;;;;;4987304;28;20057;-71
2023/10/01 06:04:12;;;;;;;1999.90;999.90;;;14.50;99.90;;;;;;4979923;28;20046;-72
2023/10/01 06:06:42;;;;;;;1999.90;999.90;;;14.50;99.90;;;;;;4987466;28;20042;-72
2023/10/01 06:09:09;;;;;;;1999.90;999.90;;;14.50;99.90;;;;;;4976585;28;20398;-72
2023/10/01 06:11:38;;;;;;;1999.90;999.90;;;14.50;99.90;;;;;;4987028;28;20042;-72
2023/10/01 06:14:05;;;;;;;1999.90;999.90;;;14.50;99.90;;;;;;4980966;28;20042;-72
2023/10/01 06:16:37;;;;;;;1999.90;999.90;;;14.50;99.90;;;;;;4986894;28;20548;-71
2023/10/01 06:19:04;;;;;;;1999.90;999.90;;;14.50;99.90;;;;;;4984199;28;20054;-72
2023/10/01 06:21:31;;;;;;;1999.90;999.90;;;14.50;99.90;;;;;;4986008;28;20323;-72
2023/10/01 06:23:58;;;;;;;1999.90;999.90;;;14.50;99.90;;;;;;4985430;28;20058;-71
2023/10/01 06:26:33;;;;;;;1999.90;999.90;;;14.60;99.90;;;;;;4983592;28;20046;-72
2023/10/01 06:29:01;;;;;;;1999.90;999.90;;;14.60;99.90;;;;;;4981012;28;20065;-71
2023/10/01 06:31:27;;;;;;;1999.90;999.90;;;14.60;99.90;;;;;;4970327;28;20503;-71
2023/10/01 06:33:57;;;;;;;1999.90;999.90;;;14.60;99.90;;;;;;4979288;28;20096;-72
2023/10/01 06:36:23;;;;;;;1999.90;999.90;;;14.60;99.90;;;;;;4969313;28;20046;-72
2023/10/01 06:38:54;;;;;;;1999.90;999.90;;;14.70;99.90;;;;;;4986886;28;20084;-71
2023/10/01 06:41:25;;;;;;;1999.90;999.90;;;14.70;99.90;;;;;;4977202;28;20062;-71
2023/10/01 06:43:55;;;;;;;1999.90;999.90;;;14.80;99.90;;;;;;4978039;28;20046;-72
2023/10/01 06:46:27;;;;;;;1999.90;999.90;;;14.80;99.90;;;;;;4986191;28;20057;-71
2023/10/01 06:48:56;;;;;;;1999.90;999.90;;;14.80;99.90;;;;;;4986442;28;20095;-72
2023/10/01 06:51:24;;;;;;;1999.90;999.90;;;14.90;99.90;;;;;;4986844;28;20042;-72
2023/10/01 06:53:58;;;;;;;1999.90;999.90;;;14.90;99.90;;;;;;4983279;28;20049;-72
2023/10/01 06:56:25;;;;;;;1999.90;999.90;;;15.00;99.90;;;;;;4982863;28;20087;-72
2023/10/01 07:01:49;;;;;;;1999.90;999.90;;;15.10;99.90;;;;;;4985467;28;20034;-71
2023/10/01 07:04:17;;;;;;;1999.90;999.90;;;15.10;99.90;;;;;;4969959;28;20046;-72
2023/10/01 07:06:44;;;;;;;1999.90;999.90;;;15.10;99.90;;;;;;4980913;28;20059;-72
2023/10/01 07:12:09;;;;;;;1999.90;999.90;;;15.20;99.90;;;;;;5019324;28;20054;-71
2023/10/01 07:14:38;;;;;;;1999.90;999.90;;;15.30;99.90;;;;;;4986041;28;20062;-72
2023/10/01 07:17:25;;;;;;;1999.90;999.90;;;15.30;99.90;;;;;;4980508;28;20113;-72
2023/10/01 07:20:00;;;;;;;1999.90;999.90;;;15.40;99.90;;;;;;4986043;28;20096;-72
2023/10/01 07:22:34;;;;;;;1999.90;999.90;;;15.40;99.90;;;;;;4978093;28;20034;-71
2023/10/01 07:25:01;;;;;;;1999.90;999.90;;;15.40;99.90;;;;;;4972264;28;20042;-72
2023/10/01 07:27:27;;;;;;;1999.90;999.90;;;15.50;99.90;;;;;;4985332;28;20109;-71
2023/10/01 07:29:54;;;;;;;1999.90;999.90;;;15.50;99.90;;;;;;4983275;28;20394;-72
2023/10/01 07:32:23;;;;;;;1999.90;999.90;;;15.60;99.90;;;;;;4974099;28;20038;-71
2023/10/01 07:34:55;;;;;;;1999.90;999.90;;;15.60;99.90;;;;;;4980006;28;20050;-72
2023/10/01 07:37:25;;;;;;;1999.90;999.90;;;15.60;99.90;;;;;;4979214;28;20438;-71
2023/10/01 07:39:59;;;;;;;1999.90;999.90;;;15.60;99.90;;;;;;4979073;28;20061;-72
2023/10/01 07:42:26;;;;;;;1999.90;999.90;;;15.60;99.90;;;;;;4984643;28;20096;-71
2023/10/01 07:44:53;;;;;;;1999.90;999.90;;;15.70;99.90;;;;;;4991335;28;20058;-71
2023/10/01 07:47:28;;;;;;;1999.90;999.90;;;15.70;99.90;;;;;;4969059;28;20070;-71
2023/10/01 07:49:58;;;;;;;1999.90;999.90;;;15.70;99.90;;;;;;4997538;28;20383;-72
2023/10/01 07:52:24;;;;;;;1999.90;999.90;;;15.80;99.90;;;;;;4977549;28;20498;-72
2023/10/01 07:54:50;;;;;;;1999.90;999.90;;;15.80;99.90;;;;;;4975499;28;20052;-72
2023/10/01 07:57:27;;;;;;;1999.90;999.90;;;15.80;99.90;;;;;;4964266;28;20479;-71
2023/10/01 08:00:00;;;;;;;1999.90;999.90;;;15.80;99.90;;;;;;4972353;28;20094;-72
2023/10/01 08:02:28;;;;;;;1999.90;999.90;;;15.80;99.90;;;;;;4977105;28;20672;-72
2023/10/01 08:04:57;;;;;;;1999.90;999.90;;;15.70;99.90;;;;;;4983420;28;20046;-71
2023/10/01 08:07:30;;;;;;;1999.90;999.90;;;15.70;99.90;;;;;;4984061;28;20089;-72
2023/10/01 08:09:59;;;;;;;1999.90;999.90;;;15.60;99.90;;;;;;4984769;28;20047;-72
2023/10/01 08:12:29;;;;;;;1999.90;999.90;;;15.70;99.90;;;;;;4985056;28;20057;-71
2023/10/01 08:17:47;;;;;;;1999.90;999.90;;;15.70;99.90;;;;;;4980023;28;20575;-71
2023/10/01 08:20:18;;;;;;;1999.90;999.90;;;15.70;99.90;;;;;;4986911;28;20057;-71
2023/10/01 08:22:44;;;;;;;1999.90;999.90;;;15.80;99.90;;;;;;4982513;28;20050;-71
2023/10/01 08:25:12;;;;;;;1999.90;999.90;;;15.80;99.90;;;;;;4982061;28;20136;-71
2023/10/01 08:28:08;;;;;;;1999.90;999.90;;;15.90;99.90;;;;;;4989165;28;20507;-71
2023/10/01 08:30:38;;;;;;;1999.90;999.90;;;16.00;99.90;;;;;;4984017;28;20047;-71
2023/10/01 08:33:26;;;;;;;1999.90;999.90;;;16.20;99.90;;;;;;4985858;28;20058;-71
2023/10/01 08:36:01;;;;;;;1999.90;999.90;;;16.30;99.90;;;;;;4986798;28;20099;-71
2023/10/01 08:38:34;;;;;;;1999.90;999.90;;;16.40;99.90;;;;;;4975486;28;20038;-71
2023/10/01 08:41:04;;;;;;;1999.90;999.90;;;16.50;99.90;;;;;;4976852;28;20137;-71
2023/10/01 08:43:35;;;;;;;1999.90;999.90;;;16.60;99.90;;;;;;4988706;28;20089;-71
2023/10/01 08:46:16;;;;;;;1999.90;999.90;;;16.70;99.90;;;;;;4977400;28;20091;-71
2023/10/01 08:48:43;;;;;;;1999.90;999.90;;;17.00;99.90;;;;;;4988529;28;20399;-71
2023/10/01 08:51:12;;;;;;;1999.90;999.90;;;17.20;99.90;;;;;;4971413;28;20050;-72
2023/10/01 08:53:41;;;;;;;1999.90;999.90;;;17.50;99.90;;;;;;4985269;28;20046;-71
2023/10/01 08:56:32;;;;;;;1999.90;999.90;;;17.80;99.90;;;;;;4983750;28;20067;-71
2023/10/01 08:58:59;;;;;;;1999.90;999.90;;;18.20;99.90;;;;;;4983110;28;20126;-72
2023/10/01 09:01:29;;;;;;;1999.90;999.90;;;18.60;99.90;;;;;;4986606;28;20042;-71
2023/10/01 09:03:57;;;;;;;1999.90;999.90;;;18.80;99.90;;;;;;4988307;28;20042;-71
2023/10/01 09:06:27;;;;;;;1999.90;999.90;;;19.00;99.90;;;;;;4980158;28;20046;-71
2023/10/01 09:08:54;;;;;;;1549.45;797.15;;;19.20;99.90;;;;;;4976787;28;20047;-71
2023/10/01 09:11:42;;;;;;;1999.90;999.90;;;19.30;99.90;;;;;;4987617;28;20042;-71
2023/10/01 09:14:17;;;;;;;1999.90;999.90;;;19.40;99.90;;;;;;4981176;28;20058;-71
2023/10/01 09:16:45;;;;;;;105.85;100.55;;;19.60;99.90;;;;;;4982557;28;20066;-71
2023/10/01 09:19:35;;;;;;;101.75;96.25;;;19.90;99.90;;;;;;4986596;28;20039;-71
2023/10/01 09:22:22;;;;;;;70.63;66.65;;;20.00;99.90;;;;;;4982359;28;20042;-71
2023/10/01 09:25:01;;;;;;;81.57;77.18;;;20.10;99.90;;;;;;4979414;28;20168;-71
2023/10/01 09:27:32;;;;;;;75.60;71.25;;;20.30;99.90;;;;;;4987784;28;20416;-71
2023/10/01 09:30:26;;;;;;;98.75;93.60;;;20.50;99.90;;;;;;4977271;28;20038;-71
2023/10/01 09:33:05;;;;;;;112.65;106.95;;;20.50;99.90;;;;;;4981652;28;20120;-72
2023/10/01 09:35:49;;;;;;;103.18;97.85;;;20.40;99.90;;;;;;4984797;28;20498;-70
2023/10/01 09:38:18;;;;;;;139.10;132.38;;;20.30;99.90;;;;;;4984627;28;20041;-71
2023/10/01 09:40:47;;;;;;;192.18;183.18;;;20.20;99.90;;;;;;4986275;28;20042;-71
2023/10/01 09:43:30;;;;;;;150.00;142.63;;;20.10;99.90;;;;;;4980061;28;20079;-71
2023/10/01 09:46:02;;;;;;;184.07;175.45;;;20.10;99.90;;;;;;4984930;28;20043;-71
2023/10/01 09:48:36;;;;;;;222.32;211.55;;;20.20;99.90;;;;;;4982564;28;20903;-71
2023/10/01 09:51:08;;;;;;;135.98;129.20;;;20.40;99.90;;;;;;4982020;28;20062;-72
2023/10/01 09:53:55;;;;;;;150.27;143.00;;;20.40;99.90;;;;;;4984010;28;20058;-72
2023/10/01 09:56:45;;;;;;;127.25;121.03;;;20.20;99.90;;;;;;4971577;28;20070;-71
2023/10/01 09:59:11;;;;;;;181.45;172.82;;;20.10;99.90;;;;;;4969375;28;20037;-72
2023/10/01 10:01:41;;;;;;;194.32;185.30;;;20.00;99.90;;;;;;4970420;28;20039;-71
2023/10/01 10:04:12;;;;;;;176.70;167.93;;;20.10;99.90;;;;;;4983082;28;20054;-72
2023/10/01 10:06:42;;;;;;;166.43;158.52;;;20.20;99.90;;;;;;4960652;28;20046;-72
2023/10/01 10:09:26;;;;;;;219.40;208.85;;;20.50;99.90;;;;;;4980253;28;20042;-71
2023/10/01 10:11:52;;;;;;;;;;;20.60;99.90;;;;;;4979108;28;20133;-72
2023/10/01 10:14:27;;;;;;;136.35;129.43;;;20.80;99.90;;;;;;4983506;28;20012;-71
2023/10/01 10:16:56;;;;;;;124.10;117.72;;;20.90;99.90;;;;;;4973789;28;20051;-72
2023/10/01 10:19:22;;;;;;;173.48;165.30;;;21.10;99.90;;;;;;4975954;28;20043;-71
2023/10/01 10:24:46;;;;;;;172.07;163.73;;;21.40;99.90;;;;;;4979769;28;20042;-71
2023/10/01 10:27:17;;;;;;;211.13;201.18;;;21.70;99.90;;;;;;4970700;28;20238;-71
2023/10/01 10:30:00;;;;;;;165.65;157.90;;;21.80;99.90;;;;;;4971037;28;20510;-71
2023/10/01 10:32:42;;;;;;;140.45;133.55;;;21.90;99.90;;;;;;4975975;28;20111;-71
2023/10/01 10:35:14;;;;;;;95.63;90.45;;;21.80;99.90;;;;;;4976095;28;20501;-72
2023/10/01 10:37:53;;;;;;;116.85;110.90;;;21.60;99.90;;;;;;4976573;28;20046;-71
2023/10/01 10:43:02;;;;;;;122.35;115.95;;;21.20;99.90;;;;;;4973535;28;20119;-71
2023/10/01 10:45:45;;;;;;;124.03;117.97;;;21.10;99.90;;;;;;4979096;28;20043;-71
2023/10/01 10:48:16;;;;;;;116.72;110.95;;;21.00;99.90;;;;;;4970772;28;20116;-71
2023/10/01 10:50:45;;;;;;;221.18;211.00;;;20.80;99.90;;;;;;4983471;28;20485;-71
2023/10/01 10:53:20;;;;;;;198.63;189.27;;;20.70;99.90;;;;;;4969274;28;20055;-71
2023/10/01 10:56:06;;;;;;;252.10;240.40;;;20.60;99.90;;;;;;4978748;28;20046;-71
2023/10/01 10:59:01;;;;;;;232.15;221.30;;;20.60;99.90;;;;;;4979125;28;20141;-71
2023/10/01 11:01:43;;;;;;;211.25;201.32;;;20.60;99.90;;;;;;4968529;28;20441;-71
2023/10/01 11:04:09;;;;;;;240.38;229.32;;;20.60;99.90;;;;;;4968093;28;20141;-71
2023/10/01 11:06:47;;;;;;;203.35;193.95;;;20.60;99.90;;;;;;4980011;28;20041;-71
2023/10/01 11:09:24;;;;;;;217.75;207.43;;;20.70;99.90;;;;;;4985962;28;20046;-71
2023/10/01 11:11:51;;;;;;;227.00;216.27;;;20.70;99.90;;;;;;4984135;28;20382;-71
2023/10/01 11:14:19;;;;;;;218.82;208.65;;;20.70;99.90;;;;;;4984040;28;20115;-71
2023/10/01 11:16:49;;;;;;;210.10;200.35;;;20.80;99.90;;;;;;4975177;28;20135;-71
2023/10/01 11:19:20;;;;;;;194.90;185.85;;;20.90;99.90;;;;;;4978635;28;20034;-71
2023/10/01 11:22:01;;;;;;;212.18;202.38;;;21.00;99.90;;;;;;4985033;28;20088;-71
2023/10/01 11:24:36;;;;;;;191.75;182.40;;;21.00;99.90;;;;;;4977763;28;20053;-71
2023/10/01 11:30:13;;;;;;;115.10;109.40;;;21.20;99.90;;;;;;4984329;28;20054;-72
2023/10/01 11:35:41;;;;;;;87.20;82.40;;;21.30;99.90;;;;;;4980850;28;20498;-71
2023/10/01 11:38:19;;;;;;;85.00;80.65;;;21.30;99.90;;;;;;5003232;28;20394;-72
2023/10/01 11:44:01;;;;;;;85.68;81.15;;;21.30;99.90;;;;;;4979740;28;20078;-71
2023/10/01 11:49:16;;;;;;;117.85;111.70;;;21.30;99.90;;;;;;4975590;28;20055;-71
2023/10/01 11:52:01;;;;;;;96.50;91.40;;;21.40;99.90;;;;;;5001277;28;20129;-72
2023/10/01 11:54:44;;;;;;;95.45;90.60;;;21.50;99.90;;;;;;4985188;28;20093;-71
2023/10/01 11:57:22;;;;;;;95.05;89.97;;;21.50;99.90;;;;;;4976936;28;20449;-72
2023/10/01 12:00:01;;;;;;;99.25;94.30;;;21.60;99.90;;;;;;4988767;28;20050;-72
2023/10/01 12:02:32;;;;;;;111.35;105.78;;;21.70;99.90;;;;;;4990466;28;20155;-72
2023/10/01 12:04:59;;;;;;;104.30;98.97;;;21.80;99.90;;;;;;4986817;28;20062;-71
2023/10/01 12:07:34;;;;;;;101.70;96.10;;;21.80;99.90;;;;;;4979563;28;20102;-71
2023/10/01 12:10:04;;;;;;;82.03;77.45;;;22.00;99.90;;;;;;4973930;28;20038;-72
2023/10/01 12:12:39;;;;;;;98.13;93.07;;;22.00;99.90;;;;;;4986985;28;20460;-72
2023/10/01 12:17:51;;;;;;;87.40;82.30;;;22.00;99.90;;;;;;4973231;28;20055;-71
2023/10/01 12:20:22;;;;;;;95.20;90.18;;;22.00;99.90;;;;;;4972179;28;20063;-71
2023/10/01 12:26:31;;;;;;;89.93;85.15;;;22.10;99.90;;;;;;4952579;28;20058;-71
2023/10/01 12:29:11;;;;;;;85.63;81.07;;;22.10;99.90;;;;;;4974626;28;20399;-71
2023/10/01 12:31:30;;;;;;;57.30;53.80;;;22.20;99.90;;;;;;4973743;28;20513;-71
2023/10/01 12:33:58;;;;;;;96.18;91.07;;;22.20;99.90;;;;;;4982644;28;20074;-71
2023/10/01 12:36:45;;;;;;;60.70;57.05;;;22.20;99.90;;;;;;4970357;28;20441;-71
2023/10/01 12:41:56;;;;;;;89.68;85.05;;;22.20;99.90;;;;;;4972818;28;20539;-71
2023/10/01 12:44:34;;;;;;;68.80;64.90;;;22.20;99.90;;;;;;5000639;28;20491;-71
2023/10/01 12:47:09;;;;;;;79.07;74.63;;;22.30;99.90;;;;;;4972202;28;20092;-71
2023/10/01 12:49:36;;;;;;;98.78;93.72;;;22.20;99.90;;;;;;4968164;28;20051;-71
2023/10/01 12:52:04;;;;;;;86.88;82.10;;;22.10;99.90;;;;;;4974834;28;20051;-71
2023/10/01 12:54:29;;;;;;;78.68;74.28;;;22.00;99.90;;;;;;4977135;28;20050;-72
2023/10/01 12:57:12;;;;;;;94.55;89.65;;;22.10;99.90;;;;;;4973169;28;20034;-71
2023/10/01 12:59:41;;;;;;;84.53;79.88;;;22.10;99.90;;;;;;4979985;28;20064;-71
2023/10/01 13:02:22;;;;;;;87.70;82.93;;;22.10;99.90;;;;;;4972741;28;20072;-71
2023/10/01 13:05:16;;;;;;;90.07;85.13;;;22.00;99.90;;;;;;4998688;28;20081;-71
2023/10/01 13:07:38;;;;;;;79.88;75.53;;;22.10;99.90;;;;;;4977872;28;20057;-71
2023/10/01 13:10:06;;;;;;;79.93;75.43;;;22.10;99.90;;;;;;4980281;28;20043;-71
2023/10/01 13:12:39;;;;;;;91.38;86.57;;;22.10;99.90;;;;;;4978015;28;20054;-71
2023/10/01 13:15:18;;;;;;;83.55;79.05;;;21.90;99.90;;;;;;4959936;28;20043;-71
2023/10/01 13:17:44;;;;;;;86.43;81.72;;;21.90;99.90;;;;;;4963358;28;20121;-71
2023/10/01 13:20:25;;;;;;;111.05;105.45;;;21.90;99.90;;;;;;4978957;28;20034;-72
2023/10/01 13:23:06;;;;;;;86.03;81.50;;;21.90;99.90;;;;;;4976577;28;20042;-71
2023/10/01 13:25:39;;;;;;;85.55;80.65;;;22.00;99.90;;;;;;4980681;28;20069;-71
2023/10/01 13:28:05;;;;;;;86.68;81.68;;;22.10;99.90;;;;;;4975768;28;20058;-71